sensor_id;sensor_type;location;lat;lon;timestamp;temperature;humidity
3770;DHT22;1900;48.890;9.190;2022-12-15T00:00:13;4.50;57.10
3770;DHT22;1900;48.890;9.190;2022-12-15T00:03:03;4.50;57.10
3770;DHT22;1900;48.890;9.190;2022-12-15T00:05:47;4.50;57.20
3770;DHT22;1900;48.890;9.190;2022-12-15T00:08:32;4.40;57.20
3770;DHT22;1900;48.890;9.190;2022-12-15T00:11:17;4.40;57.20
3770;DHT22;1900;48.890;9.190;2022-12-15T00:14:01;4.40;57.20
3770;DHT22;1900;48.890;9.190;2022-12-15T00:16:45;4.40;57.20
3770;DHT22;1900;48.890;9.190;2022-12-15T00:19:30;4.50;57.40
3770;DHT22;1900;48.890;9.190;2022-12-15T00:22:14;4.40;57.30
3770;DHT22;1900;48.890;9.190;2022-12-15T00:24:58;4.40;57.30
3770;DHT22;1900;48.890;9.190;2022-12-15T00:27:43;4.50;57.40
3770;DHT22;1900;48.890;9.190;2022-12-15T00:30:27;4.50;57.40
3770;DHT22;1900;48.890;9.190;2022-12-15T00:33:12;4.50;57.50
3770;DHT22;1900;48.890;9.190;2022-12-15T00:35:59;4.50;57.50
3770;DHT22;1900;48.890;9.190;2022-12-15T00:38:43;4.50;57.50
3770;DHT22;1900;48.890;9.190;2022-12-15T00:41:15;4.50;57.50
3770;DHT22;1900;48.890;9.190;2022-12-15T00:43:42;4.50;57.50
3770;DHT22;1900;48.890;9.190;2022-12-15T00:46:08;4.50;57.50
3770;DHT22;1900;48.890;9.190;2022-12-15T00:48:52;4.50;57.50
3770;DHT22;1900;48.890;9.190;2022-12-15T00:51:18;4.50;57.40
3770;DHT22;1900;48.890;9.190;2022-12-15T00:53:45;4.50;57.40
3770;DHT22;1900;48.890;9.190;2022-12-15T00:56:30;4.50;57.40
3770;DHT22;1900;48.890;9.190;2022-12-15T00:59:15;4.50;57.40
3770;DHT22;1900;48.890;9.190;2022-12-15T01:01:59;4.50;57.30
3770;DHT22;1900;48.890;9.190;2022-12-15T01:04:44;4.50;57.30
3770;DHT22;1900;48.890;9.190;2022-12-15T01:07:28;4.50;57.30
3770;DHT22;1900;48.890;9.190;2022-12-15T01:10:13;4.50;57.30
3770;DHT22;1900;48.890;9.190;2022-12-15T01:12:57;4.50;57.30
3770;DHT22;1900;48.890;9.190;2022-12-15T01:15:41;4.50;57.30
3770;DHT22;1900;48.890;9.190;2022-12-15T01:18:26;4.50;57.20
3770;DHT22;1900;48.890;9.190;2022-12-15T01:21:11;4.50;57.30
3770;DHT22;1900;48.890;9.190;2022-12-15T01:23:37;4.50;57.30
3770;DHT22;1900;48.890;9.190;2022-12-15T01:26:04;4.50;57.30
3770;DHT22;1900;48.890;9.190;2022-12-15T01:28:30;4.50;57.40
3770;DHT22;1900;48.890;9.190;2022-12-15T01:30:56;4.50;57.40
3770;DHT22;1900;48.890;9.190;2022-12-15T01:33:22;4.50;57.40
3770;DHT22;1900;48.890;9.190;2022-12-15T01:35:57;4.50;57.40
3770;DHT22;1900;48.890;9.190;2022-12-15T01:38:24;4.50;57.20
3770;DHT22;1900;48.890;9.190;2022-12-15T01:40:58;4.50;57.00
3770;DHT22;1900;48.890;9.190;2022-12-15T01:43:28;4.50;56.90
3770;DHT22;1900;48.890;9.190;2022-12-15T01:51:23;4.40;57.10
3770;DHT22;1900;48.890;9.190;2022-12-15T01:56:22;4.40;57.10
3770;DHT22;1900;48.890;9.190;2022-12-15T01:58:49;4.40;57.10
3770;DHT22;1900;48.890;9.190;2022-12-15T02:01:16;4.40;57.20
3770;DHT22;1900;48.890;9.190;2022-12-15T02:03:43;4.40;57.20
3770;DHT22;1900;48.890;9.190;2022-12-15T02:06:11;4.40;57.80
3770;DHT22;1900;48.890;9.190;2022-12-15T02:08:37;4.40;57.30
3770;DHT22;1900;48.890;9.190;2022-12-15T02:11:24;4.40;57.30
3770;DHT22;1900;48.890;9.190;2022-12-15T02:13:58;4.40;57.30
3770;DHT22;1900;48.890;9.190;2022-12-15T02:16:57;4.40;57.20
3770;DHT22;1900;48.890;9.190;2022-12-15T02:27:48;4.30;57.10
3770;DHT22;1900;48.890;9.190;2022-12-15T02:33:12;4.30;57.10
3770;DHT22;1900;48.890;9.190;2022-12-15T02:38:37;4.30;57.20
3770;DHT22;1900;48.890;9.190;2022-12-15T02:41:05;4.30;57.20
3770;DHT22;1900;48.890;9.190;2022-12-15T02:43:34;4.30;57.30
3770;DHT22;1900;48.890;9.190;2022-12-15T02:49:11;4.30;57.30
3770;DHT22;1900;48.890;9.190;2022-12-15T02:54:44;4.30;57.40
3770;DHT22;1900;48.890;9.190;2022-12-15T02:57:22;4.40;57.40
3770;DHT22;1900;48.890;9.190;2022-12-15T03:00:00;4.40;57.30
3770;DHT22;1900;48.890;9.190;2022-12-15T03:02:29;4.40;57.30
3770;DHT22;1900;48.890;9.190;2022-12-15T03:04:57;4.40;57.40
3770;DHT22;1900;48.890;9.190;2022-12-15T03:07:23;4.40;57.30
3770;DHT22;1900;48.890;9.190;2022-12-15T03:09:56;4.30;57.10
3770;DHT22;1900;48.890;9.190;2022-12-15T03:12:23;4.30;57.00
3770;DHT22;1900;48.890;9.190;2022-12-15T03:14:48;4.30;57.00
3770;DHT22;1900;48.890;9.190;2022-12-15T03:17:14;4.30;57.10
3770;DHT22;1900;48.890;9.190;2022-12-15T03:19:40;4.40;57.20
3770;DHT22;1900;48.890;9.190;2022-12-15T03:22:06;4.30;57.20
3770;DHT22;1900;48.890;9.190;2022-12-15T03:24:31;4.30;57.30
3770;DHT22;1900;48.890;9.190;2022-12-15T03:26:57;4.30;57.30
3770;DHT22;1900;48.890;9.190;2022-12-15T03:29:23;4.40;57.40
3770;DHT22;1900;48.890;9.190;2022-12-15T03:31:48;4.40;57.40
3770;DHT22;1900;48.890;9.190;2022-12-15T03:34:14;4.40;57.40
3770;DHT22;1900;48.890;9.190;2022-12-15T03:36:40;4.40;57.30
3770;DHT22;1900;48.890;9.190;2022-12-15T03:39:06;4.40;57.40
3770;DHT22;1900;48.890;9.190;2022-12-15T03:41:31;4.40;57.40
3770;DHT22;1900;48.890;9.190;2022-12-15T03:43:57;4.40;57.40
3770;DHT22;1900;48.890;9.190;2022-12-15T03:46:22;4.40;57.40
3770;DHT22;1900;48.890;9.190;2022-12-15T03:48:48;4.40;57.40
3770;DHT22;1900;48.890;9.190;2022-12-15T03:51:15;4.40;57.40
3770;DHT22;1900;48.890;9.190;2022-12-15T03:53:40;4.40;57.40
3770;DHT22;1900;48.890;9.190;2022-12-15T03:56:06;4.40;57.40
3770;DHT22;1900;48.890;9.190;2022-12-15T03:58:32;4.40;57.30
3770;DHT22;1900;48.890;9.190;2022-12-15T04:00:58;4.40;57.30
3770;DHT22;1900;48.890;9.190;2022-12-15T04:03:24;4.40;57.40
3770;DHT22;1900;48.890;9.190;2022-12-15T04:05:49;4.40;57.30
3770;DHT22;1900;48.890;9.190;2022-12-15T04:08:15;4.40;57.20
3770;DHT22;1900;48.890;9.190;2022-12-15T04:10:41;4.40;57.20
3770;DHT22;1900;48.890;9.190;2022-12-15T04:13:10;4.40;57.20
3770;DHT22;1900;48.890;9.190;2022-12-15T04:15:37;4.40;57.30
3770;DHT22;1900;48.890;9.190;2022-12-15T04:18:06;4.40;57.30
3770;DHT22;1900;48.890;9.190;2022-12-15T04:20:33;4.40;57.40
3770;DHT22;1900;48.890;9.190;2022-12-15T04:22:59;4.40;57.40
3770;DHT22;1900;48.890;9.190;2022-12-15T04:25:25;4.40;57.40
3770;DHT22;1900;48.890;9.190;2022-12-15T04:28:10;4.40;57.40
3770;DHT22;1900;48.890;9.190;2022-12-15T04:31:08;4.40;57.40
3770;DHT22;1900;48.890;9.190;2022-12-15T04:33:55;4.40;57.30
3770;DHT22;1900;48.890;9.190;2022-12-15T04:36:42;4.40;57.30
3770;DHT22;1900;48.890;9.190;2022-12-15T04:39:26;4.40;57.40
3770;DHT22;1900;48.890;9.190;2022-12-15T04:42:11;4.40;57.40
3770;DHT22;1900;48.890;9.190;2022-12-15T04:44:57;4.40;57.40
3770;DHT22;1900;48.890;9.190;2022-12-15T04:47:43;4.40;57.40
3770;DHT22;1900;48.890;9.190;2022-12-15T04:50:27;4.40;57.50
3770;DHT22;1900;48.890;9.190;2022-12-15T04:53:15;4.40;57.50
3770;DHT22;1900;48.890;9.190;2022-12-15T04:55:59;4.50;57.60
3770;DHT22;1900;48.890;9.190;2022-12-15T04:58:44;4.40;57.60
3770;DHT22;1900;48.890;9.190;2022-12-15T05:01:28;4.40;57.60
3770;DHT22;1900;48.890;9.190;2022-12-15T05:04:13;4.50;57.60
3770;DHT22;1900;48.890;9.190;2022-12-15T05:06:57;4.50;57.60
3770;DHT22;1900;48.890;9.190;2022-12-15T05:09:42;4.50;57.60
3770;DHT22;1900;48.890;9.190;2022-12-15T05:12:26;4.50;57.60
3770;DHT22;1900;48.890;9.190;2022-12-15T05:15:10;4.50;57.60
3770;DHT22;1900;48.890;9.190;2022-12-15T05:17:55;4.50;57.60
3770;DHT22;1900;48.890;9.190;2022-12-15T05:20:39;4.50;57.60
3770;DHT22;1900;48.890;9.190;2022-12-15T05:23:23;4.50;57.70
3770;DHT22;1900;48.890;9.190;2022-12-15T05:26:09;4.50;57.70
3770;DHT22;1900;48.890;9.190;2022-12-15T05:28:53;4.50;57.70
3770;DHT22;1900;48.890;9.190;2022-12-15T05:31:38;4.50;57.70
3770;DHT22;1900;48.890;9.190;2022-12-15T05:34:18;4.50;57.70
3770;DHT22;1900;48.890;9.190;2022-12-15T05:36:44;4.50;57.70
3770;DHT22;1900;48.890;9.190;2022-12-15T05:39:10;4.60;57.80
3770;DHT22;1900;48.890;9.190;2022-12-15T05:41:35;4.60;57.80
3770;DHT22;1900;48.890;9.190;2022-12-15T05:44:01;4.60;57.80
3770;DHT22;1900;48.890;9.190;2022-12-15T05:46:26;4.60;57.80
3770;DHT22;1900;48.890;9.190;2022-12-15T05:48:52;4.60;57.80
3770;DHT22;1900;48.890;9.190;2022-12-15T05:51:18;4.60;57.80
3770;DHT22;1900;48.890;9.190;2022-12-15T05:53:44;4.60;57.80
3770;DHT22;1900;48.890;9.190;2022-12-15T05:56:11;4.60;57.80
3770;DHT22;1900;48.890;9.190;2022-12-15T05:58:38;4.70;57.80
3770;DHT22;1900;48.890;9.190;2022-12-15T06:01:10;4.70;57.80
3770;DHT22;1900;48.890;9.190;2022-12-15T06:03:39;4.70;57.80
3770;DHT22;1900;48.890;9.190;2022-12-15T06:06:06;4.70;57.80
3770;DHT22;1900;48.890;9.190;2022-12-15T06:08:35;4.70;57.80
3770;DHT22;1900;48.890;9.190;2022-12-15T06:11:01;4.70;57.80
3770;DHT22;1900;48.890;9.190;2022-12-15T06:13:28;4.70;57.80
3770;DHT22;1900;48.890;9.190;2022-12-15T06:18:46;4.70;57.80
3770;DHT22;1900;48.890;9.190;2022-12-15T06:21:15;4.70;57.80
3770;DHT22;1900;48.890;9.190;2022-12-15T06:23:43;4.70;57.80
3770;DHT22;1900;48.890;9.190;2022-12-15T06:26:23;4.70;57.80
3770;DHT22;1900;48.890;9.190;2022-12-15T06:28:50;4.70;57.80
3770;DHT22;1900;48.890;9.190;2022-12-15T06:31:18;4.70;57.80
3770;DHT22;1900;48.890;9.190;2022-12-15T06:33:45;4.70;57.90
3770;DHT22;1900;48.890;9.190;2022-12-15T06:36:12;4.70;57.80
3770;DHT22;1900;48.890;9.190;2022-12-15T06:38:38;4.70;57.80
3770;DHT22;1900;48.890;9.190;2022-12-15T06:41:09;4.70;57.80
3770;DHT22;1900;48.890;9.190;2022-12-15T06:43:35;4.70;57.80
3770;DHT22;1900;48.890;9.190;2022-12-15T06:46:01;4.80;57.90
3770;DHT22;1900;48.890;9.190;2022-12-15T06:48:28;4.80;57.90
3770;DHT22;1900;48.890;9.190;2022-12-15T06:50:55;4.80;57.90
3770;DHT22;1900;48.890;9.190;2022-12-15T06:53:22;4.80;57.90
3770;DHT22;1900;48.890;9.190;2022-12-15T06:55:49;4.80;57.90
3770;DHT22;1900;48.890;9.190;2022-12-15T06:58:15;4.80;57.90
3770;DHT22;1900;48.890;9.190;2022-12-15T07:00:43;4.80;57.80
3770;DHT22;1900;48.890;9.190;2022-12-15T07:03:15;4.80;57.80
3770;DHT22;1900;48.890;9.190;2022-12-15T07:05:42;4.80;57.90
3770;DHT22;1900;48.890;9.190;2022-12-15T07:08:13;4.80;57.90
3770;DHT22;1900;48.890;9.190;2022-12-15T07:10:41;4.80;57.90
3770;DHT22;1900;48.890;9.190;2022-12-15T07:13:11;4.80;57.90
3770;DHT22;1900;48.890;9.190;2022-12-15T07:15:38;4.80;57.90
3770;DHT22;1900;48.890;9.190;2022-12-15T07:18:04;4.80;57.90
3770;DHT22;1900;48.890;9.190;2022-12-15T07:20:29;4.80;58.00
3770;DHT22;1900;48.890;9.190;2022-12-15T07:22:55;4.80;58.00
3770;DHT22;1900;48.890;9.190;2022-12-15T07:25:21;4.80;58.00
3770;DHT22;1900;48.890;9.190;2022-12-15T07:27:47;4.90;58.00
3770;DHT22;1900;48.890;9.190;2022-12-15T07:30:14;4.90;58.10
3770;DHT22;1900;48.890;9.190;2022-12-15T07:32:40;4.90;58.10
3770;DHT22;1900;48.890;9.190;2022-12-15T07:35:07;4.90;58.10
3770;DHT22;1900;48.890;9.190;2022-12-15T07:37:33;4.90;58.10
3770;DHT22;1900;48.890;9.190;2022-12-15T07:39:59;4.90;58.10
3770;DHT22;1900;48.890;9.190;2022-12-15T07:42:28;5.00;58.10
3770;DHT22;1900;48.890;9.190;2022-12-15T07:44:53;4.90;58.10
3770;DHT22;1900;48.890;9.190;2022-12-15T07:47:19;4.90;58.10
3770;DHT22;1900;48.890;9.190;2022-12-15T07:49:45;4.90;58.00
3770;DHT22;1900;48.890;9.190;2022-12-15T07:52:11;4.90;58.10
3770;DHT22;1900;48.890;9.190;2022-12-15T07:54:39;5.00;58.10
3770;DHT22;1900;48.890;9.190;2022-12-15T07:57:05;5.00;58.20
3770;DHT22;1900;48.890;9.190;2022-12-15T07:59:33;5.00;58.20
3770;DHT22;1900;48.890;9.190;2022-12-15T08:01:59;5.00;58.20
3770;DHT22;1900;48.890;9.190;2022-12-15T08:04:26;5.00;58.20
3770;DHT22;1900;48.890;9.190;2022-12-15T08:06:56;5.00;58.20
3770;DHT22;1900;48.890;9.190;2022-12-15T08:09:22;5.00;58.10
3770;DHT22;1900;48.890;9.190;2022-12-15T08:11:47;5.00;58.00
3770;DHT22;1900;48.890;9.190;2022-12-15T08:14:13;5.00;58.00
3770;DHT22;1900;48.890;9.190;2022-12-15T08:16:39;5.00;58.00
3770;DHT22;1900;48.890;9.190;2022-12-15T08:19:06;5.00;58.00
3770;DHT22;1900;48.890;9.190;2022-12-15T08:21:35;5.00;58.10
3770;DHT22;1900;48.890;9.190;2022-12-15T08:24:01;5.00;58.10
3770;DHT22;1900;48.890;9.190;2022-12-15T08:26:27;5.00;58.10
3770;DHT22;1900;48.890;9.190;2022-12-15T08:28:53;5.10;58.20
3770;DHT22;1900;48.890;9.190;2022-12-15T08:31:21;5.10;58.30
3770;DHT22;1900;48.890;9.190;2022-12-15T08:33:48;5.10;58.20
3770;DHT22;1900;48.890;9.190;2022-12-15T08:36:16;5.10;58.30
3770;DHT22;1900;48.890;9.190;2022-12-15T08:38:42;5.10;58.20
3770;DHT22;1900;48.890;9.190;2022-12-15T08:41:11;5.10;58.30
3770;DHT22;1900;48.890;9.190;2022-12-15T08:43:38;5.10;58.30
3770;DHT22;1900;48.890;9.190;2022-12-15T08:46:04;5.10;58.30
3770;DHT22;1900;48.890;9.190;2022-12-15T08:48:30;5.10;58.30
3770;DHT22;1900;48.890;9.190;2022-12-15T08:50:57;5.10;58.30
3770;DHT22;1900;48.890;9.190;2022-12-15T08:53:24;5.20;58.30
3770;DHT22;1900;48.890;9.190;2022-12-15T08:55:50;5.20;58.40
3770;DHT22;1900;48.890;9.190;2022-12-15T08:58:15;5.20;58.30
3770;DHT22;1900;48.890;9.190;2022-12-15T09:00:41;5.20;58.40
3770;DHT22;1900;48.890;9.190;2022-12-15T09:03:07;5.20;58.40
3770;DHT22;1900;48.890;9.190;2022-12-15T09:05:39;5.20;58.50
3770;DHT22;1900;48.890;9.190;2022-12-15T09:08:05;5.20;59.00
3770;DHT22;1900;48.890;9.190;2022-12-15T09:10:30;5.30;58.50
3770;DHT22;1900;48.890;9.190;2022-12-15T09:12:56;5.30;58.60
3770;DHT22;1900;48.890;9.190;2022-12-15T09:15:22;5.30;58.50
3770;DHT22;1900;48.890;9.190;2022-12-15T09:17:47;5.30;58.50
3770;DHT22;1900;48.890;9.190;2022-12-15T09:20:13;5.30;58.50
3770;DHT22;1900;48.890;9.190;2022-12-15T09:22:40;5.30;58.50
3770;DHT22;1900;48.890;9.190;2022-12-15T09:25:06;5.30;58.50
3770;DHT22;1900;48.890;9.190;2022-12-15T09:27:32;5.40;58.60
3770;DHT22;1900;48.890;9.190;2022-12-15T09:30:00;5.40;58.60
3770;DHT22;1900;48.890;9.190;2022-12-15T09:32:25;5.40;58.60
3770;DHT22;1900;48.890;9.190;2022-12-15T09:34:51;5.40;58.60
3770;DHT22;1900;48.890;9.190;2022-12-15T09:37:18;5.40;58.60
3770;DHT22;1900;48.890;9.190;2022-12-15T09:39:43;5.40;58.60
3770;DHT22;1900;48.890;9.190;2022-12-15T09:42:35;5.40;58.60
3770;DHT22;1900;48.890;9.190;2022-12-15T09:45:21;5.50;58.80
3770;DHT22;1900;48.890;9.190;2022-12-15T09:48:05;5.50;58.80
3770;DHT22;1900;48.890;9.190;2022-12-15T09:50:36;5.50;58.80
3770;DHT22;1900;48.890;9.190;2022-12-15T09:53:04;5.50;58.80
3770;DHT22;1900;48.890;9.190;2022-12-15T09:55:31;5.50;58.70
3770;DHT22;1900;48.890;9.190;2022-12-15T09:58:05;5.50;58.70
3770;DHT22;1900;48.890;9.190;2022-12-15T10:00:41;5.50;58.70
3770;DHT22;1900;48.890;9.190;2022-12-15T10:03:16;5.50;58.70
3770;DHT22;1900;48.890;9.190;2022-12-15T10:08:29;5.60;58.80
3770;DHT22;1900;48.890;9.190;2022-12-15T10:11:01;5.60;58.80
3770;DHT22;1900;48.890;9.190;2022-12-15T10:16:22;5.60;58.80
3770;DHT22;1900;48.890;9.190;2022-12-15T10:21:41;5.60;58.80
3770;DHT22;1900;48.890;9.190;2022-12-15T10:24:28;5.60;58.80
3770;DHT22;1900;48.890;9.190;2022-12-15T10:30:03;5.70;58.90
3770;DHT22;1900;48.890;9.190;2022-12-15T10:35:25;5.70;58.90
3770;DHT22;1900;48.890;9.190;2022-12-15T10:37:57;5.70;58.90
3770;DHT22;1900;48.890;9.190;2022-12-15T10:43:23;5.70;59.00
3770;DHT22;1900;48.890;9.190;2022-12-15T10:48:27;5.80;59.20
3770;DHT22;1900;48.890;9.190;2022-12-15T10:53:40;5.80;59.10
3770;DHT22;1900;48.890;9.190;2022-12-15T10:56:06;5.80;59.10
3770;DHT22;1900;48.890;9.190;2022-12-15T10:58:46;5.90;59.20
3770;DHT22;1900;48.890;9.190;2022-12-15T11:01:18;5.90;59.20
3770;DHT22;1900;48.890;9.190;2022-12-15T11:03:44;5.90;59.20
3770;DHT22;1900;48.890;9.190;2022-12-15T11:06:17;5.90;59.20
3770;DHT22;1900;48.890;9.190;2022-12-15T11:08:44;5.90;59.10
3770;DHT22;1900;48.890;9.190;2022-12-15T11:11:32;6.00;59.20
3770;DHT22;1900;48.890;9.190;2022-12-15T11:14:20;6.00;59.20
3770;DHT22;1900;48.890;9.190;2022-12-15T11:16:56;6.00;59.10
3770;DHT22;1900;48.890;9.190;2022-12-15T11:19:43;6.00;59.00
3770;DHT22;1900;48.890;9.190;2022-12-15T11:22:17;6.00;59.00
3770;DHT22;1900;48.890;9.190;2022-12-15T11:27:32;6.00;59.10
3770;DHT22;1900;48.890;9.190;2022-12-15T11:30:20;6.00;59.10
3770;DHT22;1900;48.890;9.190;2022-12-15T11:32:51;6.00;59.20
3770;DHT22;1900;48.890;9.190;2022-12-15T11:38:12;6.00;59.20
3770;DHT22;1900;48.890;9.190;2022-12-15T11:40:41;6.00;59.20
3770;DHT22;1900;48.890;9.190;2022-12-15T11:46:17;6.10;59.30
3770;DHT22;1900;48.890;9.190;2022-12-15T12:02:39;6.10;59.30
3770;DHT22;1900;48.890;9.190;2022-12-15T12:15:53;6.20;59.30
3770;DHT22;1900;48.890;9.190;2022-12-15T12:18:28;6.20;59.30
3770;DHT22;1900;48.890;9.190;2022-12-15T12:21:16;6.20;59.30
3770;DHT22;1900;48.890;9.190;2022-12-15T12:24:09;6.20;59.30
3770;DHT22;1900;48.890;9.190;2022-12-15T12:26:48;6.20;59.40
3770;DHT22;1900;48.890;9.190;2022-12-15T12:37:32;6.30;59.30
3770;DHT22;1900;48.890;9.190;2022-12-15T12:40:06;6.20;59.20
3770;DHT22;1900;48.890;9.190;2022-12-15T12:42:54;6.20;59.20
3770;DHT22;1900;48.890;9.190;2022-12-15T12:45:28;6.20;59.10
3770;DHT22;1900;48.890;9.190;2022-12-15T12:47:59;6.20;59.10
3770;DHT22;1900;48.890;9.190;2022-12-15T12:50:28;6.20;59.20
3770;DHT22;1900;48.890;9.190;2022-12-15T12:53:00;6.20;59.30
3770;DHT22;1900;48.890;9.190;2022-12-15T12:55:39;6.20;59.40
3770;DHT22;1900;48.890;9.190;2022-12-15T12:58:38;6.30;59.50
3770;DHT22;1900;48.890;9.190;2022-12-15T13:01:35;6.30;59.50
3770;DHT22;1900;48.890;9.190;2022-12-15T13:04:36;6.30;59.60
3770;DHT22;1900;48.890;9.190;2022-12-15T13:07:02;6.30;59.60
3770;DHT22;1900;48.890;9.190;2022-12-15T13:12:53;6.40;59.70
3770;DHT22;1900;48.890;9.190;2022-12-15T13:17:58;6.40;59.80
3770;DHT22;1900;48.890;9.190;2022-12-15T13:20:27;6.50;59.80
3770;DHT22;1900;48.890;9.190;2022-12-15T13:22:54;6.50;59.80
3770;DHT22;1900;48.890;9.190;2022-12-15T13:25:39;6.50;59.70
3770;DHT22;1900;48.890;9.190;2022-12-15T13:41:27;6.50;59.50
3770;DHT22;1900;48.890;9.190;2022-12-15T13:43:54;6.50;59.50
3770;DHT22;1900;48.890;9.190;2022-12-15T13:46:24;6.50;59.40
3770;DHT22;1900;48.890;9.190;2022-12-15T13:49:00;6.50;59.40
3770;DHT22;1900;48.890;9.190;2022-12-15T13:51:42;6.50;59.50
3770;DHT22;1900;48.890;9.190;2022-12-15T13:54:15;6.50;59.50
3770;DHT22;1900;48.890;9.190;2022-12-15T13:59:33;6.50;59.50
3770;DHT22;1900;48.890;9.190;2022-12-15T14:02:02;6.50;59.40
3770;DHT22;1900;48.890;9.190;2022-12-15T14:04:27;6.50;59.50
3770;DHT22;1900;48.890;9.190;2022-12-15T14:06:55;6.50;59.60
3770;DHT22;1900;48.890;9.190;2022-12-15T14:09:33;6.50;59.60
3770;DHT22;1900;48.890;9.190;2022-12-15T14:12:05;6.60;59.70
3770;DHT22;1900;48.890;9.190;2022-12-15T14:14:34;6.60;59.70
3770;DHT22;1900;48.890;9.190;2022-12-15T14:17:05;6.50;59.50
3770;DHT22;1900;48.890;9.190;2022-12-15T14:19:43;6.60;59.60
3770;DHT22;1900;48.890;9.190;2022-12-15T14:24:49;6.60;59.60
3770;DHT22;1900;48.890;9.190;2022-12-15T14:27:27;6.60;59.50
3770;DHT22;1900;48.890;9.190;2022-12-15T14:32:41;6.60;59.70
3770;DHT22;1900;48.890;9.190;2022-12-15T14:35:27;6.50;59.60
3770;DHT22;1900;48.890;9.190;2022-12-15T14:37:56;6.60;59.70
3770;DHT22;1900;48.890;9.190;2022-12-15T14:40:24;6.60;59.70
3770;DHT22;1900;48.890;9.190;2022-12-15T14:42:51;6.60;59.70
3770;DHT22;1900;48.890;9.190;2022-12-15T14:45:18;6.60;59.70
3770;DHT22;1900;48.890;9.190;2022-12-15T14:47:52;6.60;59.70
3770;DHT22;1900;48.890;9.190;2022-12-15T14:50:18;6.60;59.70
3770;DHT22;1900;48.890;9.190;2022-12-15T14:52:45;6.60;59.70
3770;DHT22;1900;48.890;9.190;2022-12-15T14:55:37;6.60;59.70
3770;DHT22;1900;48.890;9.190;2022-12-15T14:58:38;6.60;59.70
3770;DHT22;1900;48.890;9.190;2022-12-15T15:01:49;6.60;59.70
3770;DHT22;1900;48.890;9.190;2022-12-15T15:04:30;6.60;59.70
3770;DHT22;1900;48.890;9.190;2022-12-15T15:06:58;6.60;59.70
3770;DHT22;1900;48.890;9.190;2022-12-15T15:09:26;6.60;59.60
3770;DHT22;1900;48.890;9.190;2022-12-15T15:11:59;6.60;59.60
3770;DHT22;1900;48.890;9.190;2022-12-15T15:14:52;6.60;59.60
3770;DHT22;1900;48.890;9.190;2022-12-15T15:22:44;6.60;59.50
3770;DHT22;1900;48.890;9.190;2022-12-15T15:27:51;6.60;59.50
3770;DHT22;1900;48.890;9.190;2022-12-15T15:32:58;6.50;59.40
3770;DHT22;1900;48.890;9.190;2022-12-15T15:35:29;6.50;59.40
3770;DHT22;1900;48.890;9.190;2022-12-15T15:40:51;6.50;59.40
3770;DHT22;1900;48.890;9.190;2022-12-15T15:43:17;6.50;59.40
3770;DHT22;1900;48.890;9.190;2022-12-15T15:45:44;6.50;59.40
3770;DHT22;1900;48.890;9.190;2022-12-15T15:48:24;6.50;59.40
3770;DHT22;1900;48.890;9.190;2022-12-15T15:50:51;6.50;59.40
3770;DHT22;1900;48.890;9.190;2022-12-15T15:53:20;6.50;59.40
3770;DHT22;1900;48.890;9.190;2022-12-15T15:55:48;6.50;59.40
3770;DHT22;1900;48.890;9.190;2022-12-15T15:58:16;6.50;59.40
3770;DHT22;1900;48.890;9.190;2022-12-15T16:00:42;6.50;59.40
3770;DHT22;1900;48.890;9.190;2022-12-15T16:03:07;6.50;59.40
3770;DHT22;1900;48.890;9.190;2022-12-15T16:05:34;6.50;59.40
3770;DHT22;1900;48.890;9.190;2022-12-15T16:08:01;6.50;59.50
3770;DHT22;1900;48.890;9.190;2022-12-15T16:10:28;6.50;59.40
3770;DHT22;1900;48.890;9.190;2022-12-15T16:12:55;6.40;60.00
3770;DHT22;1900;48.890;9.190;2022-12-15T16:15:24;6.50;59.50
3770;DHT22;1900;48.890;9.190;2022-12-15T16:17:53;6.50;59.50
3770;DHT22;1900;48.890;9.190;2022-12-15T16:20:22;6.50;59.50
3770;DHT22;1900;48.890;9.190;2022-12-15T16:22:51;6.50;59.50
3770;DHT22;1900;48.890;9.190;2022-12-15T16:25:30;6.50;59.50
3770;DHT22;1900;48.890;9.190;2022-12-15T16:27:56;6.50;59.50
3770;DHT22;1900;48.890;9.190;2022-12-15T16:30:24;6.40;59.40
3770;DHT22;1900;48.890;9.190;2022-12-15T16:32:51;6.40;59.40
3770;DHT22;1900;48.890;9.190;2022-12-15T16:35:17;6.40;59.40
3770;DHT22;1900;48.890;9.190;2022-12-15T16:37:43;6.40;59.40
3770;DHT22;1900;48.890;9.190;2022-12-15T16:40:22;6.40;59.40
3770;DHT22;1900;48.890;9.190;2022-12-15T16:42:57;6.40;59.40
3770;DHT22;1900;48.890;9.190;2022-12-15T16:45:25;6.40;59.40
3770;DHT22;1900;48.890;9.190;2022-12-15T16:47:51;6.40;59.40
3770;DHT22;1900;48.890;9.190;2022-12-15T16:50:20;6.40;59.40
3770;DHT22;1900;48.890;9.190;2022-12-15T16:52:49;6.40;59.40
3770;DHT22;1900;48.890;9.190;2022-12-15T16:55:25;6.40;59.50
3770;DHT22;1900;48.890;9.190;2022-12-15T16:57:55;6.40;59.40
3770;DHT22;1900;48.890;9.190;2022-12-15T17:00:24;6.40;59.40
3770;DHT22;1900;48.890;9.190;2022-12-15T17:02:51;6.40;59.90
3770;DHT22;1900;48.890;9.190;2022-12-15T17:05:18;6.40;59.50
3770;DHT22;1900;48.890;9.190;2022-12-15T17:07:50;6.40;59.50
3770;DHT22;1900;48.890;9.190;2022-12-15T17:10:21;6.40;59.50
3770;DHT22;1900;48.890;9.190;2022-12-15T17:12:47;6.40;59.50
3770;DHT22;1900;48.890;9.190;2022-12-15T17:15:19;6.40;59.50
3770;DHT22;1900;48.890;9.190;2022-12-15T17:17:45;6.40;59.50
3770;DHT22;1900;48.890;9.190;2022-12-15T17:20:16;6.40;59.50
3770;DHT22;1900;48.890;9.190;2022-12-15T17:22:45;6.40;59.50
3770;DHT22;1900;48.890;9.190;2022-12-15T17:25:15;6.40;59.50
3770;DHT22;1900;48.890;9.190;2022-12-15T17:27:42;6.40;59.50
3770;DHT22;1900;48.890;9.190;2022-12-15T17:30:12;6.40;59.50
3770;DHT22;1900;48.890;9.190;2022-12-15T17:32:38;6.40;59.50
3770;DHT22;1900;48.890;9.190;2022-12-15T17:35:05;6.40;59.40
3770;DHT22;1900;48.890;9.190;2022-12-15T17:37:31;6.40;59.40
3770;DHT22;1900;48.890;9.190;2022-12-15T17:39:57;6.40;59.40
3770;DHT22;1900;48.890;9.190;2022-12-15T17:42:23;6.40;59.40
3770;DHT22;1900;48.890;9.190;2022-12-15T17:44:49;6.40;59.40
3770;DHT22;1900;48.890;9.190;2022-12-15T17:47:15;6.40;59.40
3770;DHT22;1900;48.890;9.190;2022-12-15T17:49:42;6.40;59.50
3770;DHT22;1900;48.890;9.190;2022-12-15T17:52:21;6.40;59.40
3770;DHT22;1900;48.890;9.190;2022-12-15T17:54:49;6.40;59.50
3770;DHT22;1900;48.890;9.190;2022-12-15T17:57:16;6.40;59.40
3770;DHT22;1900;48.890;9.190;2022-12-15T17:59:41;6.40;59.30
3770;DHT22;1900;48.890;9.190;2022-12-15T18:02:11;6.40;59.30
3770;DHT22;1900;48.890;9.190;2022-12-15T18:04:38;6.40;59.30
3770;DHT22;1900;48.890;9.190;2022-12-15T18:07:04;6.30;59.20
3770;DHT22;1900;48.890;9.190;2022-12-15T18:09:29;6.30;59.20
3770;DHT22;1900;48.890;9.190;2022-12-15T18:11:55;6.30;59.10
3770;DHT22;1900;48.890;9.190;2022-12-15T18:14:21;6.30;59.20
3770;DHT22;1900;48.890;9.190;2022-12-15T18:16:47;6.30;59.20
3770;DHT22;1900;48.890;9.190;2022-12-15T18:19:13;6.30;59.20
3770;DHT22;1900;48.890;9.190;2022-12-15T18:21:39;6.20;59.10
3770;DHT22;1900;48.890;9.190;2022-12-15T18:24:15;6.30;59.20
3770;DHT22;1900;48.890;9.190;2022-12-15T18:26:42;6.30;59.20
3770;DHT22;1900;48.890;9.190;2022-12-15T18:29:12;6.20;59.10
3770;DHT22;1900;48.890;9.190;2022-12-15T18:31:42;6.20;59.10
3770;DHT22;1900;48.890;9.190;2022-12-15T18:34:12;6.20;59.10
3770;DHT22;1900;48.890;9.190;2022-12-15T18:36:39;6.20;59.10
3770;DHT22;1900;48.890;9.190;2022-12-15T18:39:23;6.20;59.10
3770;DHT22;1900;48.890;9.190;2022-12-15T18:41:50;6.20;59.00
3770;DHT22;1900;48.890;9.190;2022-12-15T18:44:26;6.10;58.90
3770;DHT22;1900;48.890;9.190;2022-12-15T18:46:52;6.10;59.00
3770;DHT22;1900;48.890;9.190;2022-12-15T18:49:19;6.10;59.00
3770;DHT22;1900;48.890;9.190;2022-12-15T18:51:46;6.10;59.00
3770;DHT22;1900;48.890;9.190;2022-12-15T18:54:18;6.10;59.10
3770;DHT22;1900;48.890;9.190;2022-12-15T18:56:44;6.10;59.10
3770;DHT22;1900;48.890;9.190;2022-12-15T18:59:14;6.10;59.00
3770;DHT22;1900;48.890;9.190;2022-12-15T19:01:44;6.10;59.00